Huvudsida
METAR-TAF:

METAR-TAF

Flygplatser :

Teheran, Iran

Mehrabads flygplats

latitud: 35-41N, longitud: 051-21E, höjd: 1204 m

Aktuellt väderrapport

Denna rapport gjordes för 5 minuter sedan, klockan 01:00 UTC
Vind 6 kt från nord
Temperatur 13°C
Fuktighet 47%
Tryck 1020 hPa
Sikt 10 km eller mer
Inga moln under 1 500 m eller inga cumulonimbus

METAR: OIII 250100Z 01006KT CAVOK 13/02 Q1020 A3013 NOSIG

Tid: 05:35 (01:05 UTC)

Väderprognos

Denna rapport gjordes för 2 timmar och 5 minuter sedan, klockan 23:00 UTC
Prognos gäller från 25 kl. 00 UTC till 26 kl. 06 UTC
Vind 8 kt från nordväst
Sikt: 7000 m
Blir
från 25 kl. 05 UTC till 25 kl. 06 UTC
Vind 10 kt från syd/sydost
Temporärt
från 25 kl. 12 UTC till 25 kl. 15 UTC
Få moln på en höjd av 3000 ft, Cumulonimbus.
Spridda moln på en höjd av 3500 ft
Blir
från 25 kl. 16 UTC till 25 kl. 18 UTC
Vind 8 kt från nordväst

TAF: OIII 242300Z 2500/2606 32004MPS 7000 NSC BECMG 2505/2506 15005MPS TEMPO 2512/2515 FEW030CB SCT035 BECMG 2516/2518 32004MPS

Aktuella väderrapporter och prognoser från 4000 flygplatser (METAR- och TAF-rapporter).

De tillgängliga stationerna syns som gula och röda prickar på kartan.

För musen över prickarna för att se namnen på stationerna.

Klicka sedan för att få väderrapporter och prognoser.

För att ändra kartan: Klicka på de gröna knapparna med ett svart kors på för att zooma in; den gröna knappen med ett streck på för att zooma ut; eller på de gröna pilarna för angränsande kartor.


METAR-TAF: